Time;durP1;ratioP1;P1;durP2;ratioP2;P2;SDS_P1;SDS_P2;PMS_P1;PMS_P2;Temp;Humidity;BMP_temperature;BMP_pressure;BME280_temperature;BME280_humidity;BME280_pressure;Samples;Min_cycle;Max_cycle;Signal;HPM_P1;HPM_P2
2023/11/28 00:01:47;;;;;;;8.88;5.22;;;;;;;-0.25;66.37;94129.09;5110802;28;20224;-68
2023/11/28 00:04:12;;;;;;;10.60;6.07;;;;;;;-0.29;64.42;94115.66;5092840;28;20050;-67
2023/11/28 00:06:38;;;;;;;8.27;4.97;;;;;;;-0.29;65.70;94120.75;5126799;28;20492;-67
2023/11/28 00:09:03;;;;;;;7.55;4.85;;;;;;;-0.35;65.92;94122.81;5109691;28;20031;-68
2023/11/28 00:11:29;;;;;;;8.52;5.00;;;;;;;-0.20;66.35;94114.34;5092592;28;20036;-68
2023/11/28 00:13:54;;;;;;;11.85;5.53;;;;;;;-0.35;65.58;94102.38;5126838;28;20520;-68
2023/11/28 00:16:19;;;;;;;11.18;4.57;;;;;;;-0.39;65.18;94098.31;5109716;28;20165;-68
2023/11/28 00:18:45;;;;;;;10.35;5.32;;;;;;;-0.87;67.05;94095.63;5108389;28;20513;-67
2023/11/28 00:21:11;;;;;;;8.80;4.85;;;;;;;-0.99;68.56;94076.69;5110804;28;20027;-68
2023/11/28 00:23:37;;;;;;;8.90;4.82;;;;;;;-0.96;67.98;94088.44;5109737;28;20099;-68
2023/11/28 00:26:02;;;;;;;8.35;4.90;;;;;;;-1.10;66.63;94073.00;5109648;28;20525;-68
2023/11/28 00:28:28;;;;;;;7.80;4.50;;;;;;;-1.24;66.20;94078.78;5088422;28;20461;-67
2023/11/28 00:30:53;;;;;;;8.32;4.25;;;;;;;-1.13;65.70;94081.63;5089299;28;20031;-68
2023/11/28 00:33:19;;;;;;;6.57;3.80;;;;;;;-1.26;65.29;94072.94;5089217;28;20039;-67
2023/11/28 00:35:44;;;;;;;10.32;4.82;;;;;;;-1.10;65.22;94056.00;5108267;28;20085;-67
2023/11/28 00:38:10;;;;;;;8.05;4.38;;;;;;;-1.25;67.19;94066.94;5088832;28;20036;-67
2023/11/28 00:40:35;;;;;;;9.02;4.50;;;;;;;-1.21;67.49;94059.06;5072392;28;20421;-68
2023/11/28 00:43:01;;;;;;;7.10;4.10;;;;;;;-0.95;68.85;94055.25;5090796;28;20458;-67
2023/11/28 00:45:26;;;;;;;7.50;4.43;;;;;;;-1.12;69.25;94040.75;5124768;27;20477;-67
2023/11/28 00:47:52;;;;;;;7.13;4.55;;;;;;;-1.05;68.82;94046.38;5143734;27;20070;-67
2023/11/28 00:50:18;;;;;;;7.05;3.92;;;;;;;-1.15;69.60;94040.91;5126525;28;20028;-67
2023/11/28 00:52:47;;;;;;;7.22;4.50;;;;;;;-1.17;69.75;94045.28;5126640;28;20063;-67
2023/11/28 00:55:12;;;;;;;7.55;4.40;;;;;;;-1.13;69.14;94048.50;5141609;27;20054;-67
2023/11/28 00:57:38;;;;;;;8.48;5.03;;;;;;;-1.41;70.07;94037.09;5110843;28;20028;-67
2023/11/28 01:00:10;;;;;;;9.43;5.78;;;;;;;-1.41;70.48;94033.75;5110667;28;20036;-67
2023/11/28 01:02:36;;;;;;;10.30;5.72;;;;;;;-1.32;70.45;94048.56;5112875;28;20032;-67
2023/11/28 01:05:01;;;;;;;12.48;6.93;;;;;;;-1.59;70.53;93999.78;5112404;28;20032;-67
2023/11/28 01:07:26;;;;;;;17.98;8.18;;;;;;;-1.43;69.56;94015.97;5094732;28;20024;-68
2023/11/28 01:09:52;;;;;;;13.63;7.88;;;;;;;-1.29;69.94;94019.56;5113013;28;20040;-69
2023/11/28 01:12:19;;;;;;;16.08;8.45;;;;;;;-1.39;69.49;94022.56;5107204;28;20035;-67
2023/11/28 01:14:45;;;;;;;18.38;10.43;;;;;;;-1.64;69.54;93994.91;5100786;28;20194;-68
2023/11/28 01:17:10;;;;;;;13.07;7.05;;;;;;;-1.68;71.32;94001.03;5095066;28;20111;-67
2023/11/28 01:19:38;;;;;;;13.20;6.38;;;;;;;-1.48;71.32;93994.16;5112634;28;20027;-67
2023/11/28 01:22:03;;;;;;;10.57;5.18;;;;;;;-1.12;71.50;94002.50;5111455;28;20080;-67
2023/11/28 01:24:29;;;;;;;6.50;3.92;;;;;;;-0.94;72.73;93998.22;5111987;28;20066;-67
2023/11/28 01:26:54;;;;;;;17.15;9.00;;;;;;;-0.75;70.70;94012.59;5111621;28;20024;-67
2023/11/28 01:29:19;;;;;;;22.13;11.85;;;;;;;-0.83;68.04;94002.78;5113777;28;20028;-67
2023/11/28 01:31:45;;;;;;;22.65;12.98;;;;;;;-0.87;67.27;93990.25;5111072;28;20028;-67
2023/11/28 01:34:10;;;;;;;20.58;10.20;;;;;;;-0.90;67.77;93986.94;5112417;28;20031;-67
2023/11/28 01:36:39;;;;;;;20.33;10.45;;;;;;;-0.87;67.96;93992.81;5112272;28;20020;-67
2023/11/28 01:39:04;;;;;;;18.15;9.55;;;;;;;-0.86;67.56;93989.34;5093804;28;20105;-67
2023/11/28 01:41:30;;;;;;;18.38;8.85;;;;;;;-0.81;67.58;93987.38;5113080;28;20465;-67
2023/11/28 01:44:01;;;;;;;17.55;9.90;;;;;;;-0.85;68.38;93991.00;5112158;28;20036;-67
2023/11/28 01:46:26;;;;;;;;;;;;;;;-0.73;68.98;93991.19;5146236;27;20027;-68
2023/11/28 01:48:52;;;;;;;17.23;7.30;;;;;;;-0.67;67.76;93977.28;5111713;28;19942;-67
2023/11/28 01:51:18;;;;;;;11.48;7.15;;;;;;;-0.72;66.89;93963.97;5094966;28;20036;-67
2023/11/28 01:53:43;;;;;;;10.88;6.00;;;;;;;-1.07;66.32;93919.91;5095176;28;20465;-67
2023/11/28 01:56:10;;;;;;;14.95;6.90;;;;;;;-1.04;67.38;93966.44;5111838;28;20370;-67
2023/11/28 01:58:35;;;;;;;12.20;6.90;;;;;;;-0.69;69.28;93974.00;5093842;28;20035;-68
2023/11/28 02:01:01;;;;;;;14.18;6.85;;;;;;;-0.68;66.33;93950.97;5094955;28;20496;-67
2023/11/28 02:03:26;;;;;;;9.13;4.93;;;;;;;-0.71;66.12;93965.59;5094809;28;20486;-67
2023/11/28 02:05:53;;;;;;;8.75;5.05;;;;;;;-0.76;68.09;93955.63;5112978;28;20062;-67
2023/11/28 02:08:19;;;;;;;6.20;3.75;;;;;;;-0.93;66.25;93917.44;5075536;28;20127;-67
2023/11/28 02:10:44;;;;;;;6.95;4.05;;;;;;;-0.88;66.41;93935.06;5077551;28;20027;-67
2023/11/28 02:13:10;;;;;;;7.28;3.70;;;;;;;-0.68;66.35;93945.03;5128568;27;20035;-67
2023/11/28 02:15:39;;;;;;;6.25;3.70;;;;;;;-0.65;67.12;93956.81;5111755;28;20027;-67
2023/11/28 02:18:04;;;;;;;7.38;3.58;;;;;;;-0.52;69.41;93943.31;5094382;28;20024;-67
2023/11/28 02:20:29;;;;;;;7.47;3.90;;;;;;;-0.58;69.30;93946.19;5112811;28;20039;-67
2023/11/28 02:22:55;;;;;;;7.25;4.53;;;;;;;-0.55;68.86;93942.66;5113134;28;20084;-67
2023/11/28 02:25:20;;;;;;;6.65;3.80;;;;;;;-0.71;68.09;93932.44;5111251;28;20047;-67
2023/11/28 02:27:46;;;;;;;5.55;3.20;;;;;;;-0.82;68.69;93930.47;5094543;28;20036;-67
2023/11/28 02:30:11;;;;;;;6.88;3.72;;;;;;;-0.80;68.65;93938.88;5094360;28;20077;-67
2023/11/28 02:32:37;;;;;;;5.25;2.95;;;;;;;-0.67;69.56;93944.13;5093890;28;20080;-67
2023/11/28 02:35:02;;;;;;;7.57;4.35;;;;;;;-0.83;68.30;93908.41;5092991;28;20486;-67
2023/11/28 02:37:28;;;;;;;8.77;4.00;;;;;;;-0.68;67.94;93934.84;5111258;28;20499;-67
2023/11/28 02:39:53;;;;;;;6.63;3.83;;;;;;;-0.72;67.60;93913.78;5111018;28;20043;-67
2023/11/28 02:42:19;;;;;;;7.60;3.83;;;;;;;-0.72;66.95;93910.41;5109799;28;20036;-67
2023/11/28 02:44:44;;;;;;;7.40;4.38;;;;;;;-0.66;67.90;93914.34;5111473;28;20035;-67
2023/11/28 02:47:10;;;;;;;5.90;3.90;;;;;;;-0.37;68.10;93903.38;5110716;28;20047;-67
2023/11/28 02:49:35;;;;;;;6.05;3.80;;;;;;;-0.34;69.63;93912.59;5111041;28;20085;-67
2023/11/28 02:52:01;;;;;;;9.48;4.57;;;;;;;-0.55;70.92;93909.50;5110535;28;20084;-67
2023/11/28 02:54:26;;;;;;;6.97;4.45;;;;;;;-0.39;70.05;93912.03;5111028;28;20031;-67
2023/11/28 02:56:51;;;;;;;7.50;4.35;;;;;;;-0.71;69.93;93904.38;5110715;28;20028;-67
2023/11/28 02:59:17;;;;;;;8.70;4.90;;;;;;;-0.43;69.31;93913.09;5093400;28;20032;-67
2023/11/28 03:01:42;;;;;;;5.53;4.00;;;;;;;-0.29;68.12;93908.06;5110425;28;20024;-67
2023/11/28 03:04:08;;;;;;;6.22;3.90;;;;;;;-0.43;68.78;93895.25;5110147;28;20031;-68
2023/11/28 03:06:33;;;;;;;5.18;3.67;;;;;;;-0.25;68.67;93894.25;5111919;28;20032;-67
2023/11/28 03:08:58;;;;;;;6.90;3.65;;;;;;;-0.19;69.39;93882.88;5111811;28;20027;-67
2023/11/28 03:11:24;;;;;;;6.82;3.30;;;;;;;-0.32;68.58;93863.13;5109627;28;20027;-67
2023/11/28 03:13:49;;;;;;;6.05;3.55;;;;;;;-0.08;69.82;93871.16;5111495;28;20043;-67
2023/11/28 03:16:15;;;;;;;6.85;4.07;;;;;;;-0.27;71.58;93873.91;5092859;28;20024;-67
2023/11/28 03:18:40;;;;;;;7.38;3.38;;;;;;;-0.09;72.79;93883.97;5091798;28;20040;-67
2023/11/28 03:21:06;;;;;;;5.07;3.55;;;;;;;0.11;72.74;93891.38;5111415;28;20088;-67
2023/11/28 03:23:31;;;;;;;8.05;3.75;;;;;;;0.24;72.62;93877.88;5111368;28;20110;-68
2023/11/28 03:25:56;;;;;;;7.25;4.05;;;;;;;0.06;72.80;93861.88;5111283;28;20405;-67
2023/11/28 03:28:22;;;;;;;9.32;4.75;;;;;;;0.05;72.14;93871.25;5142784;27;20035;-67
2023/11/28 03:30:47;;;;;;;6.45;3.85;;;;;;;0.11;72.62;93870.09;5111318;28;20032;-67
2023/11/28 03:33:13;;;;;;;7.68;4.32;;;;;;;0.13;72.71;93858.06;5092522;28;20085;-67
2023/11/28 03:35:38;;;;;;;7.30;4.05;;;;;;;0.03;72.97;93847.56;5109963;28;20404;-67
2023/11/28 03:38:04;;;;;;;6.38;4.10;;;;;;;0.12;72.72;93846.19;5109300;28;20493;-67
2023/11/28 03:40:29;;;;;;;6.93;4.03;;;;;;;0.06;73.67;93844.00;5110195;28;20492;-67
2023/11/28 03:42:55;;;;;;;7.15;3.85;;;;;;;0.21;73.87;93840.56;5093141;28;20028;-67
2023/11/28 03:45:20;;;;;;;7.35;4.38;;;;;;;0.40;74.75;93836.00;5126719;27;20036;-67
2023/11/28 03:47:46;;;;;;;7.65;4.55;;;;;;;0.08;73.75;93806.41;5108335;28;20047;-67
2023/11/28 03:50:11;;;;;;;9.02;4.95;;;;;;;-0.10;73.84;93816.78;5091050;28;20024;-67
2023/11/28 03:52:36;;;;;;;7.20;4.68;;;;;;;0.02;74.43;93824.66;5100832;28;20024;-67
2023/11/28 03:55:02;;;;;;;9.15;6.45;;;;;;;0.12;74.67;93836.00;5104004;28;20023;-67
2023/11/28 03:57:28;;;;;;;9.02;6.35;;;;;;;0.22;74.54;93822.59;5106560;28;20028;-68
2023/11/28 03:59:53;;;;;;;10.90;6.97;;;;;;;0.12;74.64;93820.66;5104536;28;20421;-67
2023/11/28 04:02:19;;;;;;;10.55;6.30;;;;;;;0.26;73.88;93818.13;5105625;28;20031;-67
2023/11/28 04:04:44;;;;;;;11.50;6.43;;;;;;;0.24;74.66;93824.22;5088000;28;20036;-67
2023/11/28 04:07:11;;;;;;;10.45;7.15;;;;;;;0.09;73.83;93810.63;5104908;28;20032;-67
2023/11/28 04:09:37;;;;;;;9.77;6.25;;;;;;;0.25;74.83;93824.13;5088112;28;20042;-67
2023/11/28 04:12:03;;;;;;;10.18;6.18;;;;;;;0.36;74.04;93819.25;5102105;28;20039;-67
2023/11/28 04:14:28;;;;;;;12.15;6.63;;;;;;;0.21;74.71;93823.50;5088290;28;20115;-68
2023/11/28 04:16:54;;;;;;;13.65;7.80;;;;;;;0.06;75.87;93818.47;5106033;28;20028;-67
2023/11/28 04:19:19;;;;;;;11.82;6.63;;;;;;;0.14;74.72;93814.56;5072018;28;20043;-67
2023/11/28 04:21:44;;;;;;;10.02;6.47;;;;;;;0.11;73.90;93803.69;5104019;28;20039;-67
2023/11/28 04:24:10;;;;;;;10.98;4.68;;;;;;;0.03;72.00;93796.47;5104754;28;20032;-67
2023/11/28 04:26:39;;;;;;;6.57;4.53;;;;;;;0.13;72.11;93792.47;5107552;28;20031;-67
2023/11/28 04:29:04;;;;;;;8.82;5.07;;;;;;;0.07;73.37;93792.81;5089502;28;20543;-67
2023/11/28 04:31:30;;;;;;;7.07;4.93;;;;;;;0.09;73.58;93783.34;5103459;28;20469;-67
2023/11/28 04:33:56;;;;;;;14.80;6.82;;;;;;;0.27;74.17;93804.44;5088135;28;20028;-67
2023/11/28 04:36:21;;;;;;;17.55;9.27;;;;;;;0.31;74.47;93793.13;5108006;28;20088;-67
2023/11/28 04:38:47;;;;;;;10.65;7.03;;;;;;;0.39;74.65;93792.66;5109343;28;20500;-67
2023/11/28 04:41:12;;;;;;;8.68;5.60;;;;;;;0.39;75.19;93785.84;5090381;28;20031;-67
2023/11/28 04:43:38;;;;;;;8.43;6.03;;;;;;;0.39;74.46;93783.28;5108498;27;20036;-67
2023/11/28 04:46:03;;;;;;;9.93;5.35;;;;;;;0.34;73.53;93762.28;5090872;28;20019;-67
2023/11/28 04:48:29;;;;;;;8.85;5.43;;;;;;;0.24;74.79;93750.97;5091190;27;20051;-67
2023/11/28 04:50:54;;;;;;;10.68;5.05;;;;;;;0.22;74.18;93752.78;5108155;27;20028;-67
2023/11/28 04:53:20;;;;;;;8.32;5.00;;;;;;;0.38;75.08;93738.19;5106755;27;20412;-67
2023/11/28 04:55:45;;;;;;;8.88;5.15;;;;;;;0.31;74.34;93726.72;5123649;27;20492;-67
2023/11/28 04:58:11;;;;;;;8.57;5.18;;;;;;;0.21;75.24;93726.41;5091740;28;20097;-66
2023/11/28 05:00:36;;;;;;;9.80;5.22;;;;;;;0.40;75.99;93723.59;5108935;28;20035;-67
2023/11/28 05:03:02;;;;;;;9.80;6.03;;;;;;;0.14;74.21;93714.09;5091051;28;20035;-67
2023/11/28 05:05:27;;;;;;;10.50;5.75;;;;;;;0.21;74.47;93705.16;5109067;28;20081;-67
2023/11/28 05:07:53;;;;;;;13.55;9.60;;;;;;;-0.03;75.26;93705.72;5108854;27;20027;-67
2023/11/28 05:10:18;;;;;;;14.85;10.02;;;;;;;0.28;75.43;93714.13;5091396;28;20047;-67
2023/11/28 05:12:44;;;;;;;29.33;19.33;;;;;;;0.19;75.41;93720.56;5107653;28;20028;-67
2023/11/28 05:15:09;;;;;;;12.75;8.30;;;;;;;0.26;76.43;93710.00;5109857;28;20024;-68
2023/11/28 05:17:35;;;;;;;12.32;7.90;;;;;;;-0.09;75.75;93672.88;5141087;27;20035;-66
2023/11/28 05:20:00;;;;;;;11.93;7.53;;;;;;;0.36;75.61;93701.69;5107549;28;20031;-67
2023/11/28 05:22:26;;;;;;;8.45;5.80;;;;;;;0.31;76.42;93692.69;5107389;28;20042;-67
2023/11/28 05:24:51;;;;;;;9.88;6.30;;;;;;;0.53;74.96;93692.16;5108623;28;20083;-67
2023/11/28 05:27:17;;;;;;;10.05;6.55;;;;;;;0.46;75.79;93680.69;5107610;27;20412;-67
2023/11/28 05:29:42;;;;;;;12.68;8.35;;;;;;;0.45;74.49;93697.75;5091078;28;20424;-67
2023/11/28 05:32:07;;;;;;;13.52;8.77;;;;;;;0.42;72.71;93691.09;5106509;28;20020;-67
2023/11/28 05:34:33;;;;;;;9.55;6.55;;;;;;;0.50;71.45;93687.25;5108458;28;20035;-67
2023/11/28 05:36:59;;;;;;;11.93;6.75;;;;;;;0.50;73.22;93693.16;5109992;27;20075;-67
2023/11/28 05:39:24;;;;;;;82.15;28.88;;;;;;;0.39;74.18;93675.13;5108372;28;20116;-67
2023/11/28 05:41:50;;;;;;;19.02;9.57;;;;;;;0.08;73.18;93696.59;5089097;28;20040;-67
2023/11/28 05:44:15;;;;;;;63.50;23.88;;;;;;;0.30;74.35;93684.16;5107441;28;20481;-67
2023/11/28 05:46:41;;;;;;;38.45;16.00;;;;;;;0.13;73.54;93659.66;5107591;28;20032;-67
2023/11/28 05:49:06;;;;;;;38.70;18.23;;;;;;;0.25;73.23;93667.47;5142412;27;20475;-67
2023/11/28 05:51:31;;;;;;;29.52;14.10;;;;;;;0.30;72.58;93665.47;5107486;28;20077;-68
2023/11/28 05:53:58;;;;;;;28.52;13.77;;;;;;;0.46;73.09;93670.47;5105944;28;20424;-67
2023/11/28 05:56:24;;;;;;;40.05;19.95;;;;;;;0.63;72.89;93670.25;5109652;28;20205;-67
2023/11/28 05:58:49;;;;;;;15.13;8.43;;;;;;;0.58;72.96;93664.59;5110322;28;20040;-68
2023/11/28 06:01:15;;;;;;;14.20;7.45;;;;;;;0.54;73.65;93658.03;5107395;28;20501;-68
2023/11/28 06:03:40;;;;;;;11.55;6.85;;;;;;;0.73;74.29;93663.66;5089246;28;20038;-67
2023/11/28 06:06:06;;;;;;;11.48;6.60;;;;;;;0.50;72.50;93657.38;5090527;28;20045;-67
2023/11/28 06:08:32;;;;;;;21.75;10.93;;;;;;;0.68;73.91;93654.63;5109394;28;20027;-69
2023/11/28 06:10:57;;;;;;;13.55;7.85;;;;;;;0.68;73.82;93664.84;5089954;28;20027;-67
2023/11/28 06:13:23;;;;;;;18.23;9.95;;;;;;;0.66;73.32;93647.84;5106105;28;20020;-67
2023/11/28 06:15:48;;;;;;;14.57;7.47;;;;;;;0.56;73.49;93638.31;5108828;28;20059;-67
2023/11/28 06:18:13;;;;;;;16.08;8.98;;;;;;;0.56;72.75;93646.00;5107113;28;20036;-67
2023/11/28 06:20:39;;;;;;;15.25;8.30;;;;;;;0.60;73.17;93634.66;5124145;27;20016;-67
2023/11/28 06:23:04;;;;;;;9.85;6.38;;;;;;;0.49;72.04;93612.31;5107206;28;20555;-68
2023/11/28 06:25:30;;;;;;;12.70;5.68;;;;;;;0.42;72.51;93619.56;5109108;28;20043;-68
2023/11/28 06:27:56;;;;;;;11.13;5.93;;;;;;;0.52;73.26;93608.75;5090092;28;20039;-67
2023/11/28 06:30:21;;;;;;;7.63;4.93;;;;;;;0.62;73.44;93605.53;5106215;28;20032;-68
2023/11/28 06:32:46;;;;;;;8.25;5.13;;;;;;;0.54;74.41;93606.94;5104892;27;20028;-68
2023/11/28 06:35:12;;;;;;;7.07;4.88;;;;;;;0.39;73.94;93583.97;5106192;28;20032;-67
2023/11/28 06:37:38;;;;;;;11.32;6.20;;;;;;;0.51;75.17;93576.47;5093197;28;20023;-68
2023/11/28 06:40:04;;;;;;;70.22;29.33;;;;;;;0.39;74.87;93581.41;5092948;28;20066;-68
2023/11/28 06:42:29;;;;;;;471.50;135.10;;;;;;;0.54;75.36;93586.47;5112468;28;20401;-68
2023/11/28 06:44:54;;;;;;;318.20;89.95;;;;;;;0.37;74.53;93575.59;5111980;28;20035;-68
2023/11/28 06:47:20;;;;;;;102.13;34.13;;;;;;;0.53;74.56;93584.81;5110796;28;20055;-68
2023/11/28 06:49:46;;;;;;;27.70;13.35;;;;;;;0.61;74.44;93580.03;5111051;28;20089;-68
2023/11/28 06:52:13;;;;;;;97.20;26.73;;;;;;;0.38;74.78;93576.41;5111198;28;20102;-68
2023/11/28 06:54:39;;;;;;;184.02;51.95;;;;;;;0.61;72.97;93544.25;5109075;28;20047;-68
2023/11/28 06:57:05;;;;;;;91.03;29.42;;;;;;;0.68;72.19;93558.31;5127512;27;20032;-68
2023/11/28 06:59:30;;;;;;;81.35;25.73;;;;;;;0.50;73.35;93559.47;5111212;28;20043;-68
2023/11/28 07:01:56;;;;;;;30.40;13.98;;;;;;;0.73;72.66;93571.59;5138280;27;20043;-67
2023/11/28 07:04:22;;;;;;;27.73;11.57;;;;;;;0.69;72.11;93582.94;5108228;28;20036;-68
2023/11/28 07:06:47;;;;;;;47.80;19.38;;;;;;;0.76;72.10;93550.97;5105411;28;20455;-68
2023/11/28 07:09:13;;;;;;;29.50;11.77;;;;;;;0.74;71.50;93552.78;5090048;28;20115;-67
2023/11/28 07:11:40;;;;;;;16.38;8.43;;;;;;;0.84;71.95;93558.94;5106099;28;20035;-68
2023/11/28 07:14:06;;;;;;;23.50;11.45;;;;;;;0.69;72.26;93543.78;5107276;28;20060;-68
2023/11/28 07:16:31;;;;;;;52.33;21.58;;;;;;;0.76;71.89;93550.97;5106034;28;20039;-68
2023/11/28 07:18:58;;;;;;;24.35;12.57;;;;;;;0.70;71.35;93541.13;5106335;28;20699;-68
2023/11/28 07:21:24;;;;;;;21.92;11.07;;;;;;;0.67;73.22;93526.00;5107704;28;20031;-67
2023/11/28 07:23:49;;;;;;;24.02;11.40;;;;;;;0.56;72.99;93519.03;5106703;28;20445;-68
2023/11/28 07:26:15;;;;;;;25.77;14.40;;;;;;;0.77;73.01;93500.63;5105676;28;20050;-68
2023/11/28 07:28:41;;;;;;;31.77;16.27;;;;;;;0.79;71.84;93509.84;5106676;28;20047;-68
2023/11/28 07:31:09;;;;;;;13.50;8.38;;;;;;;0.76;70.96;93479.38;5105585;28;20402;-69
2023/11/28 07:33:35;;;;;;;23.40;12.73;;;;;;;0.49;72.62;93516.94;5106242;28;20043;-68
2023/11/28 07:36:00;;;;;;;22.70;14.18;;;;;;;0.64;72.09;93500.59;5107159;28;20027;-68
2023/11/28 07:38:26;;;;;;;35.67;21.83;;;;;;;0.56;72.23;93501.13;5103404;28;20474;-68
2023/11/28 07:40:52;;;;;;;33.30;21.02;;;;;;;0.73;71.22;93483.88;5113214;27;20309;-68
2023/11/28 07:43:17;;;;;;;18.58;11.57;;;;;;;0.70;71.82;93492.56;5108661;27;20035;-68
2023/11/28 07:45:42;;;;;;;9.80;7.13;;;;;;;0.69;72.31;93479.88;5105296;28;20027;-68
2023/11/28 07:48:08;;;;;;;10.60;7.57;;;;;;;0.69;72.04;93483.25;5103874;28;20066;-68
2023/11/28 07:50:34;;;;;;;8.07;5.68;;;;;;;0.71;69.91;93486.53;5088896;28;20034;-68
2023/11/28 07:53:00;;;;;;;8.25;5.45;;;;;;;0.89;71.65;93474.25;5089398;28;20027;-68
2023/11/28 07:55:25;;;;;;;8.30;5.63;;;;;;;0.87;72.43;93448.81;5106542;28;20031;-68
2023/11/28 07:57:50;;;;;;;9.57;6.32;;;;;;;0.86;72.43;93448.88;5115223;28;20418;-68
2023/11/28 08:00:18;;;;;;;10.25;6.05;;;;;;;1.13;72.86;93448.78;5106733;28;20542;-67
2023/11/28 08:02:43;;;;;;;7.95;5.22;;;;;;;0.99;70.15;93446.34;5110913;28;20035;-68
2023/11/28 08:05:09;;;;;;;7.45;5.18;;;;;;;0.99;70.06;93454.00;5110092;28;20039;-68
2023/11/28 08:07:35;;;;;;;15.32;11.50;;;;;;;0.86;72.01;93439.50;5141708;27;20108;-68
2023/11/28 08:10:01;;;;;;;13.85;9.20;;;;;;;0.95;71.14;93412.50;5108906;28;20031;-68
2023/11/28 08:12:26;;;;;;;21.85;13.43;;;;;;;0.93;70.77;93413.50;5110925;28;20027;-68
2023/11/28 08:14:52;;;;;;;23.95;13.45;;;;;;;0.99;70.74;93424.13;5128715;27;20036;-68
2023/11/28 08:17:19;;;;;;;46.05;26.63;;;;;;;0.94;72.21;93420.25;5125459;27;20069;-68
2023/11/28 08:19:45;;;;;;;32.30;21.90;;;;;;;1.11;71.35;93425.03;5094244;28;20032;-68
2023/11/28 08:22:10;;;;;;;17.02;11.50;;;;;;;0.94;70.66;93421.06;5111463;28;20038;-68
2023/11/28 08:24:35;;;;;;;16.98;10.68;;;;;;;0.60;72.13;93407.16;5111752;28;20028;-68
2023/11/28 08:27:01;;;;;;;17.05;10.20;;;;;;;0.88;71.41;93427.41;5112772;28;20405;-68
2023/11/28 08:29:26;;;;;;;16.42;11.18;;;;;;;0.88;71.00;93404.41;5113268;28;20028;-68
2023/11/28 08:31:51;;;;;;;16.10;12.18;;;;;;;1.02;70.37;93403.47;5113673;28;20024;-68
2023/11/28 08:34:17;;;;;;;18.27;12.05;;;;;;;0.81;70.61;93400.63;5096602;28;20030;-68
2023/11/28 08:36:43;;;;;;;15.93;10.15;;;;;;;1.05;70.34;93387.09;5114712;28;20046;-68
2023/11/28 08:39:09;;;;;;;11.15;8.10;;;;;;;1.10;69.67;93395.28;5113512;28;20031;-67
2023/11/28 08:41:34;;;;;;;11.77;8.80;;;;;;;1.19;69.50;93396.38;5113393;28;20038;-68
2023/11/28 08:43:59;;;;;;;16.70;9.63;;;;;;;1.16;69.99;93397.41;5113489;28;20036;-68
2023/11/28 08:46:25;;;;;;;21.55;12.13;;;;;;;1.37;71.28;93402.00;5079164;28;20040;-68
2023/11/28 08:48:50;;;;;;;10.00;7.00;;;;;;;1.39;68.47;93389.88;5113428;28;20022;-67
2023/11/28 08:51:16;;;;;;;11.10;6.30;;;;;;;1.28;68.45;93385.50;5113367;28;20024;-68
2023/11/28 08:53:41;;;;;;;10.38;6.88;;;;;;;1.39;69.28;93393.25;5114589;28;20478;-68
2023/11/28 08:56:13;;;;;;;11.07;7.28;;;;;;;1.22;69.20;93371.41;5096212;28;20392;-68
2023/11/28 08:58:38;;;;;;;32.33;19.45;;;;;;;1.46;69.43;93374.00;5096172;28;20083;-68
2023/11/28 09:01:04;;;;;;;19.33;11.65;;;;;;;1.58;71.07;93385.09;5113127;28;20035;-68
2023/11/28 09:03:29;;;;;;;16.23;8.75;;;;;;;1.53;71.57;93361.56;5113333;28;20058;-68
2023/11/28 09:05:55;;;;;;;13.32;7.55;;;;;;;1.62;72.20;93347.34;5113133;28;20050;-68
2023/11/28 09:08:20;;;;;;;30.35;20.98;;;;;;;1.76;71.46;93352.28;5112811;28;20035;-68
2023/11/28 09:10:46;;;;;;;28.55;18.40;;;;;;;1.93;69.51;93344.19;5112868;28;20047;-68
2023/11/28 09:13:11;;;;;;;12.75;8.18;;;;;;;1.92;67.60;93346.84;5114018;28;20023;-68
2023/11/28 09:15:37;;;;;;;10.50;6.88;;;;;;;1.85;66.52;93338.00;5112902;28;20027;-67
2023/11/28 09:18:02;;;;;;;10.80;6.15;;;;;;;1.98;65.98;93344.69;5078908;28;20507;-68
2023/11/28 09:20:28;;;;;;;8.27;5.53;;;;;;;2.06;67.07;93333.03;5114074;28;20039;-68
2023/11/28 09:22:53;;;;;;;9.05;6.20;;;;;;;2.23;68.09;93330.91;5113437;28;20020;-68
2023/11/28 09:25:18;;;;;;;7.88;5.50;;;;;;;2.31;68.02;93317.50;5113916;28;20088;-68
2023/11/28 09:27:44;;;;;;;19.45;15.00;;;;;;;2.26;65.92;93308.50;5112770;28;20031;-68
2023/11/28 09:30:10;;;;;;;12.20;8.63;;;;;;;2.18;66.69;93319.34;5095520;28;20036;-68
2023/11/28 09:32:36;;;;;;;11.90;7.32;;;;;;;2.34;66.00;93308.75;5112668;28;20028;-68
2023/11/28 09:35:01;;;;;;;10.85;6.57;;;;;;;2.55;66.11;93302.03;5113772;28;20023;-68
2023/11/28 09:37:27;;;;;;;11.10;7.20;;;;;;;2.53;64.68;93285.13;5112425;28;20465;-68
2023/11/28 09:39:53;;;;;;;12.95;8.25;;;;;;;2.65;64.90;93299.59;5113566;28;20028;-68
2023/11/28 09:42:19;;;;;;;13.43;8.30;;;;;;;2.48;65.55;93277.81;5113932;28;20177;-68
2023/11/28 09:44:45;;;;;;;13.63;9.70;;;;;;;2.69;65.11;93260.78;5095424;28;20421;-68
2023/11/28 09:47:11;;;;;;;13.15;9.43;;;;;;;2.85;63.12;93264.72;5095198;28;20051;-68
2023/11/28 09:49:45;;;;;;;13.52;9.68;;;;;;;2.54;64.72;93245.75;5112220;28;20031;-68
2023/11/28 09:52:12;;;;;;;11.85;8.60;;;;;;;2.52;64.68;93247.63;5095673;28;20042;-68
2023/11/28 09:54:38;;;;;;;13.20;8.45;;;;;;;2.63;63.95;93242.50;5112039;28;20032;-68
2023/11/28 09:57:05;;;;;;;12.32;8.25;;;;;;;2.55;64.77;93232.81;5095097;28;20024;-68
2023/11/28 09:59:30;;;;;;;15.82;8.77;;;;;;;2.66;64.10;93234.56;5111958;28;20039;-68
2023/11/28 10:01:56;;;;;;;13.20;8.70;;;;;;;2.68;64.74;93242.94;5094990;28;20096;-68
2023/11/28 10:04:22;;;;;;;12.63;9.43;;;;;;;2.69;64.47;93235.13;5094932;28;20039;-68
2023/11/28 10:06:49;;;;;;;15.82;10.75;;;;;;;2.74;65.04;93227.09;5111852;28;20038;-68
2023/11/28 10:09:16;;;;;;;19.25;13.05;;;;;;;2.82;64.37;93227.31;5078534;28;20039;-68
2023/11/28 10:11:42;;;;;;;21.60;13.05;;;;;;;2.94;64.76;93222.97;5111655;28;20390;-68
2023/11/28 10:14:08;;;;;;;14.68;10.63;;;;;;;2.96;63.55;93203.16;5094804;28;20495;-68
2023/11/28 10:16:53;;;;;;;16.60;10.73;;;;;;;2.82;64.05;93206.78;5111469;28;20024;-68
2023/11/28 10:19:19;;;;;;;16.35;12.50;;;;;;;3.13;64.14;93199.25;5110983;28;20040;-68
2023/11/28 10:21:44;;;;;;;18.13;11.80;;;;;;;3.22;64.31;93184.88;5094522;28;20035;-68
2023/11/28 10:24:10;;;;;;;36.88;23.40;;;;;;;3.35;63.04;93162.41;5094590;28;20035;-68
2023/11/28 10:26:38;;;;;;;18.02;13.13;;;;;;;3.43;62.83;93144.66;5111519;28;20082;-68
2023/11/28 10:29:07;;;;;;;9.77;6.60;;;;;;;3.54;60.93;93139.44;5094499;28;20035;-68
2023/11/28 10:31:39;;;;;;;10.93;8.30;;;;;;;3.45;61.45;93124.78;5094679;28;20023;-68
2023/11/28 10:34:08;;;;;;;14.90;10.40;;;;;;;3.46;61.92;93136.69;5077441;28;20031;-68
2023/11/28 10:36:43;;;;;;;15.30;11.05;;;;;;;3.44;61.99;93128.28;5111202;28;20485;-68
2023/11/28 10:39:09;;;;;;;18.08;11.20;;;;;;;3.45;61.84;93111.13;5094480;28;20032;-67
2023/11/28 10:41:35;;;;;;;19.80;14.05;;;;;;;3.35;62.71;93116.22;5111200;28;20038;-68
2023/11/28 10:44:01;;;;;;;17.38;11.38;;;;;;;3.38;63.60;93092.84;5111072;28;20028;-69
2023/11/28 10:46:26;;;;;;;10.27;6.60;;;;;;;3.09;63.41;93096.06;5093859;28;20081;-68
2023/11/28 10:48:52;;;;;;;20.73;15.60;;;;;;;3.32;64.81;93104.44;5094043;28;20402;-68
2023/11/28 10:51:17;;;;;;;13.20;9.40;;;;;;;3.37;64.09;93093.78;5093724;28;20031;-68
2023/11/28 10:53:42;;;;;;;14.00;7.88;;;;;;;3.19;62.24;93074.75;5094051;28;20035;-68
2023/11/28 10:56:09;;;;;;;12.75;7.72;;;;;;;3.27;62.35;93055.22;5093844;28;20031;-67
2023/11/28 10:58:35;;;;;;;14.63;8.13;;;;;;;3.32;63.91;93052.28;5094064;28;20035;-68
2023/11/28 11:01:02;;;;;;;16.08;10.88;;;;;;;3.19;66.24;93039.66;5093793;28;20020;-67
2023/11/28 11:03:28;;;;;;;15.30;11.18;;;;;;;3.12;65.63;93030.81;5094051;28;20102;-68
2023/11/28 11:05:53;;;;;;;2.40;1.67;;;;;;;3.03;62.80;93032.38;5093624;28;20039;-68
2023/11/28 11:08:19;;;;;;;2.40;1.50;;;;;;;2.98;62.89;93003.75;5093669;28;20024;-67
2023/11/28 11:10:45;;;;;;;3.25;1.63;;;;;;;3.10;63.11;93007.88;5093856;28;20454;-68
2023/11/28 11:13:23;;;;;;;2.42;1.60;;;;;;;3.11;63.43;92995.84;5093713;28;20031;-68
2023/11/28 11:15:57;;;;;;;3.22;2.10;;;;;;;3.22;63.30;92992.41;5111692;28;20055;-67
2023/11/28 11:18:36;;;;;;;7.50;4.07;;;;;;;3.09;63.83;92993.41;5111605;28;20031;-67
2023/11/28 11:21:13;;;;;;;10.10;6.68;;;;;;;3.06;64.64;92980.00;5110504;28;20031;-68
2023/11/28 11:23:40;;;;;;;10.95;7.18;;;;;;;3.13;64.40;92978.56;5110473;28;20401;-67
2023/11/28 11:26:06;;;;;;;12.13;7.88;;;;;;;3.06;64.38;92983.38;5110353;28;20042;-68